createdAt,value
2022-11-24T00:01:30.100Z,78.50
2022-11-24T00:04:00.024Z,78.50
2022-11-24T00:06:30.591Z,78.40
2022-11-24T00:08:59.308Z,78.50
2022-11-24T00:11:29.904Z,78.30
2022-11-24T00:13:59.285Z,78.20
2022-11-24T00:16:29.673Z,78.20
2022-11-24T00:18:59.926Z,78.10
2022-11-24T00:21:31.313Z,78.10
2022-11-24T00:24:00.153Z,78.00
2022-11-24T00:26:29.814Z,77.90
2022-11-24T00:28:59.486Z,77.90
2022-11-24T00:31:29.447Z,77.80
2022-11-24T00:33:59.445Z,77.60
2022-11-24T00:36:30.813Z,77.50
2022-11-24T00:39:01.390Z,77.50
2022-11-24T00:41:30.190Z,77.40
2022-11-24T00:43:58.991Z,77.50
2022-11-24T00:46:27.946Z,77.50
2022-11-24T00:48:56.558Z,77.60
2022-11-24T00:51:27.820Z,77.60
2022-11-24T00:53:58.276Z,77.60
2022-11-24T00:56:27.094Z,77.50
2022-11-24T00:58:56.713Z,77.50
2022-11-24T01:01:27.191Z,77.60
2022-11-24T01:03:56.496Z,77.50
2022-11-24T01:06:26.716Z,77.50
2022-11-24T01:08:55.677Z,77.50
2022-11-24T01:11:26.733Z,77.70
2022-11-24T01:13:58.399Z,77.60
2022-11-24T01:16:29.313Z,77.70
2022-11-24T01:18:57.847Z,77.80
2022-11-24T01:21:26.254Z,77.90
2022-11-24T01:23:54.630Z,78.00
2022-11-24T01:26:25.371Z,78.00
2022-11-24T01:28:54.911Z,78.10
2022-11-24T01:31:23.724Z,78.20
2022-11-24T01:33:52.528Z,78.20
2022-11-24T01:36:20.925Z,78.20
2022-11-24T01:38:49.441Z,78.30
2022-11-24T01:41:19.846Z,78.40
2022-11-24T01:43:50.144Z,78.50
2022-11-24T01:46:22.702Z,78.70
2022-11-24T01:48:56.630Z,78.70
2022-11-24T01:51:27.842Z,78.70
2022-11-24T01:54:01.285Z,78.70
2022-11-24T01:56:31.009Z,78.60
2022-11-24T01:59:03.828Z,78.50
2022-11-24T02:01:33.042Z,78.50
2022-11-24T02:04:04.402Z,78.30
2022-11-24T02:06:34.849Z,78.20
2022-11-24T02:09:08.565Z,78.10
2022-11-24T02:11:39.412Z,78.00
2022-11-24T02:14:13.051Z,77.90
2022-11-24T02:16:44.873Z,77.90
2022-11-24T02:19:19.201Z,77.80
2022-11-24T02:21:47.632Z,77.70
2022-11-24T02:24:24.151Z,77.70
2022-11-24T02:26:53.782Z,77.70
2022-11-24T02:29:22.261Z,77.50
2022-11-24T02:31:55.754Z,77.40
2022-11-24T02:34:24.114Z,77.50
2022-11-24T02:36:52.575Z,77.40
2022-11-24T02:39:20.992Z,77.30
2022-11-24T02:41:54.028Z,77.30
2022-11-24T02:44:24.850Z,77.10
2022-11-24T02:47:03.462Z,77.00
2022-11-24T02:49:31.692Z,76.90
2022-11-24T02:51:59.931Z,76.90
2022-11-24T02:54:28.146Z,76.80
2022-11-24T02:56:57.946Z,76.80
2022-11-24T02:59:26.437Z,76.60
2022-11-24T03:01:54.747Z,76.40
2022-11-24T03:04:23.105Z,76.30
2022-11-24T03:06:51.375Z,76.30
2022-11-24T03:09:19.627Z,76.30
2022-11-24T03:11:47.872Z,76.30
2022-11-24T03:14:17.940Z,76.20
2022-11-24T03:16:46.151Z,76.10
2022-11-24T03:19:14.412Z,75.90
2022-11-24T03:21:42.647Z,76.00
2022-11-24T03:24:10.932Z,75.90
2022-11-24T03:26:39.085Z,75.90
2022-11-24T03:29:07.258Z,75.80
2022-11-24T03:31:36.805Z,75.80
2022-11-24T03:34:05.067Z,75.80
2022-11-24T03:36:33.207Z,75.90
2022-11-24T03:39:01.364Z,75.80
2022-11-24T03:41:29.607Z,76.00
2022-11-24T03:43:57.767Z,76.10
2022-11-24T03:46:25.945Z,76.10
2022-11-24T03:48:55.536Z,76.00
2022-11-24T03:51:23.736Z,76.00
2022-11-24T03:53:51.919Z,76.00
2022-11-24T03:56:20.541Z,75.90
2022-11-24T03:58:48.766Z,75.90
2022-11-24T04:01:16.994Z,75.90
2022-11-24T04:03:45.210Z,75.80
2022-11-24T04:06:14.766Z,76.00
2022-11-24T04:08:42.951Z,76.00
2022-11-24T04:11:31.517Z,76.10
2022-11-24T04:13:58.654Z,76.20
2022-11-24T04:16:26.891Z,76.30
2022-11-24T04:18:55.168Z,76.40
2022-11-24T04:21:24.896Z,76.50
2022-11-24T04:23:53.088Z,76.60
2022-11-24T04:26:21.260Z,76.60
2022-11-24T04:28:49.346Z,76.60
2022-11-24T04:31:18.268Z,76.70
2022-11-24T04:33:46.546Z,76.70
2022-11-24T04:36:14.713Z,76.70
2022-11-24T04:39:19.976Z,76.70
2022-11-24T04:41:32.440Z,76.70
2022-11-24T04:44:00.861Z,76.60
2022-11-24T04:46:29.083Z,76.50
2022-11-24T04:48:57.287Z,76.50
2022-11-24T04:51:25.446Z,76.40
2022-11-24T04:53:54.992Z,76.30
2022-11-24T04:56:23.154Z,76.30
2022-11-24T04:58:51.380Z,76.20
2022-11-24T05:01:19.633Z,76.20
2022-11-24T05:03:47.854Z,76.10
2022-11-24T05:06:16.070Z,76.00
2022-11-24T05:08:48.041Z,75.90
2022-11-24T05:11:18.581Z,74.80
2022-11-24T05:13:47.177Z,74.70
2022-11-24T05:16:15.721Z,74.70
2022-11-24T05:18:43.952Z,74.70
2022-11-24T05:21:12.178Z,74.70
2022-11-24T05:23:40.394Z,74.70
2022-11-24T05:26:08.658Z,74.60
2022-11-24T05:28:38.217Z,74.60
2022-11-24T05:31:06.532Z,74.60
2022-11-24T05:33:34.928Z,74.50
2022-11-24T05:36:04.490Z,74.50
2022-11-24T05:38:33.149Z,74.50
2022-11-24T05:41:02.531Z,74.50
2022-11-24T05:43:30.956Z,74.50
2022-11-24T05:46:02.355Z,74.60
2022-11-24T05:48:30.586Z,74.70
2022-11-24T05:50:59.573Z,74.70
2022-11-24T05:53:27.878Z,74.60
2022-11-24T05:55:56.058Z,74.90
2022-11-24T05:58:24.224Z,74.90
2022-11-24T06:00:53.312Z,75.10
2022-11-24T06:03:23.591Z,74.90
2022-11-24T06:05:51.754Z,74.90
2022-11-24T06:08:19.932Z,76.50
2022-11-24T06:10:48.320Z,76.90
2022-11-24T06:13:16.694Z,77.30
2022-11-24T06:15:45.210Z,77.90
2022-11-24T06:18:13.317Z,78.10
2022-11-24T06:20:57.617Z,78.40
2022-11-24T06:23:32.134Z,78.80
2022-11-24T06:26:00.646Z,79.30
2022-11-24T06:28:28.947Z,79.70
2022-11-24T06:31:02.018Z,80.00
2022-11-24T06:33:33.949Z,80.20
2022-11-24T06:36:06.235Z,80.40
2022-11-24T06:38:36.668Z,80.50
2022-11-24T06:41:07.185Z,80.60
2022-11-24T06:43:36.089Z,80.70
2022-11-24T06:46:04.922Z,80.90
2022-11-24T06:48:33.596Z,81.20
2022-11-24T06:51:04.805Z,81.30
2022-11-24T06:53:37.572Z,81.20
2022-11-24T06:56:10.707Z,81.30
2022-11-24T06:58:44.251Z,81.20
2022-11-24T07:01:15.738Z,81.10
2022-11-24T07:03:44.141Z,81.10
2022-11-24T07:06:13.661Z,81.40
2022-11-24T07:08:42.186Z,80.80
2022-11-24T07:11:12.814Z,81.00
2022-11-24T07:13:41.194Z,81.00
2022-11-24T07:16:15.002Z,81.00
2022-11-24T07:18:44.012Z,81.00
2022-11-24T07:21:13.876Z,80.90
2022-11-24T07:23:42.076Z,81.00
2022-11-24T07:26:11.800Z,81.00
2022-11-24T07:28:40.246Z,81.00
2022-11-24T07:31:09.678Z,81.10
2022-11-24T07:33:38.674Z,81.10
2022-11-24T07:36:08.505Z,81.20
2022-11-24T07:38:38.063Z,81.20
2022-11-24T07:41:08.134Z,81.20
2022-11-24T07:43:37.735Z,81.20
2022-11-24T07:46:07.243Z,81.20
2022-11-24T07:48:35.863Z,80.90
2022-11-24T07:51:05.430Z,80.90
2022-11-24T07:53:34.939Z,80.70
2022-11-24T07:56:07.124Z,80.50
2022-11-24T07:58:36.850Z,80.30
2022-11-24T08:01:13.604Z,80.20
2022-11-24T08:03:42.081Z,79.90
2022-11-24T08:06:32.280Z,79.70
2022-11-24T08:08:59.882Z,79.70
2022-11-24T08:11:31.476Z,79.60
2022-11-24T08:13:59.872Z,79.50
2022-11-24T08:16:28.092Z,79.50
2022-11-24T08:18:57.145Z,79.30
2022-11-24T08:21:25.990Z,79.00
2022-11-24T08:23:58.112Z,79.00
2022-11-24T08:26:29.993Z,78.90
2022-11-24T08:28:59.729Z,78.80
2022-11-24T08:31:33.452Z,78.80
2022-11-24T08:34:04.797Z,77.50
2022-11-24T08:36:33.812Z,78.00
2022-11-24T08:39:02.740Z,77.10
2022-11-24T08:41:33.149Z,76.90
2022-11-24T08:44:01.481Z,76.80
2022-11-24T08:46:29.741Z,76.70
2022-11-24T08:48:57.938Z,76.70
2022-11-24T08:51:27.584Z,76.30
2022-11-24T08:53:56.891Z,76.20
2022-11-24T08:56:25.359Z,76.20
2022-11-24T08:58:55.505Z,76.10
2022-11-24T09:01:24.452Z,75.90
2022-11-24T09:03:52.849Z,75.80
2022-11-24T09:06:23.850Z,75.80
2022-11-24T09:08:52.378Z,75.70
2022-11-24T09:11:21.085Z,75.90
2022-11-24T09:13:49.418Z,75.80
2022-11-24T09:16:21.233Z,75.80
2022-11-24T09:18:54.944Z,75.70
2022-11-24T09:21:23.895Z,75.60
2022-11-24T09:23:53.706Z,75.50
2022-11-24T09:26:24.609Z,75.30
2022-11-24T09:28:54.998Z,75.10
2022-11-24T09:34:00.965Z,74.80
2022-11-24T09:36:31.779Z,74.70
2022-11-24T09:41:51.526Z,74.20
2022-11-24T09:47:32.075Z,73.80
2022-11-24T09:58:13.274Z,73.10
2022-11-24T10:00:42.664Z,72.80
2022-11-24T10:03:27.190Z,72.70
2022-11-24T10:05:55.794Z,72.50
2022-11-24T10:08:37.193Z,72.50
2022-11-24T10:11:12.537Z,72.20
2022-11-24T10:14:02.920Z,72.00
2022-11-24T10:16:43.850Z,71.60
2022-11-24T10:19:23.412Z,71.60
2022-11-24T10:22:01.924Z,71.50
2022-11-24T10:24:59.755Z,71.40
2022-11-24T10:27:34.538Z,71.20
2022-11-24T10:30:15.884Z,71.20
2022-11-24T10:32:48.366Z,70.80
2022-11-24T10:35:19.521Z,70.80
2022-11-24T10:37:56.613Z,70.70
2022-11-24T10:43:27.954Z,69.90
2022-11-24T10:46:05.949Z,69.80
2022-11-24T10:48:42.176Z,69.80
2022-11-24T10:51:48.975Z,69.60
2022-11-24T10:54:19.190Z,70.00
2022-11-24T10:56:48.956Z,69.20
2022-11-24T10:59:33.130Z,69.10
2022-11-24T11:02:04.192Z,68.70
2022-11-24T11:04:34.453Z,68.70
2022-11-24T11:07:19.078Z,68.50
2022-11-24T11:09:48.155Z,68.10
2022-11-24T11:15:25.559Z,68.00
2022-11-24T11:17:59.024Z,67.90
2022-11-24T11:20:31.024Z,67.90
2022-11-24T11:23:01.249Z,67.80
2022-11-24T11:25:33.240Z,67.60
2022-11-24T11:28:27.549Z,67.20
2022-11-24T11:31:21.038Z,66.90
2022-11-24T11:34:03.810Z,66.70
2022-11-24T11:36:34.015Z,66.40
2022-11-24T11:39:03.655Z,66.20
2022-11-24T11:41:35.119Z,66.00
2022-11-24T11:44:21.748Z,65.70
2022-11-24T11:46:49.944Z,65.50
2022-11-24T11:49:19.884Z,65.50
2022-11-24T11:52:04.690Z,65.20
2022-11-24T11:54:48.217Z,64.80
2022-11-24T11:57:28.404Z,64.80
2022-11-24T12:00:06.184Z,64.70
2022-11-24T12:03:06.596Z,64.60
2022-11-24T12:05:48.479Z,64.50
2022-11-24T12:08:49.486Z,64.50
2022-11-24T12:11:26.885Z,64.40
2022-11-24T12:14:13.861Z,64.30
2022-11-24T12:16:53.162Z,64.00
2022-11-24T12:19:35.105Z,63.80
2022-11-24T12:22:12.335Z,63.70
2022-11-24T12:24:48.101Z,63.50
2022-11-24T12:27:24.600Z,63.20
2022-11-24T12:30:10.602Z,63.10
2022-11-24T12:33:07.678Z,63.10
2022-11-24T12:35:39.815Z,63.00
2022-11-24T12:38:23.682Z,63.10
2022-11-24T12:41:40.418Z,62.90
2022-11-24T12:44:26.055Z,62.80
2022-11-24T12:47:00.313Z,62.70
2022-11-24T12:49:35.078Z,62.70
2022-11-24T12:52:20.656Z,62.50
2022-11-24T12:54:50.249Z,62.50
2022-11-24T12:57:22.671Z,62.30
2022-11-24T13:00:00.194Z,62.20
2022-11-24T13:02:39.009Z,61.80
2022-11-24T13:05:20.585Z,61.50
2022-11-24T13:07:51.095Z,61.10
2022-11-24T13:10:55.218Z,61.60
2022-11-24T13:13:27.101Z,61.20
2022-11-24T13:19:09.937Z,61.00
2022-11-24T13:22:05.523Z,61.10
2022-11-24T13:24:36.538Z,61.10
2022-11-24T13:27:39.742Z,61.10
2022-11-24T13:30:50.950Z,60.80
2022-11-24T13:33:33.419Z,60.70
2022-11-24T13:36:52.935Z,60.50
2022-11-24T13:39:22.490Z,59.90
2022-11-24T13:42:42.679Z,60.80
2022-11-24T13:45:02.118Z,59.30
2022-11-24T13:47:36.273Z,59.40
2022-11-24T13:50:07.066Z,59.20
2022-11-24T13:52:50.331Z,59.00
2022-11-24T13:55:32.310Z,58.70
2022-11-24T13:58:08.166Z,58.80
2022-11-24T14:01:02.583Z,58.80
2022-11-24T14:03:34.838Z,58.60
2022-11-24T14:06:04.171Z,58.90
2022-11-24T14:08:35.781Z,58.80
2022-11-24T14:11:12.432Z,58.70
2022-11-24T14:13:40.644Z,58.60
2022-11-24T14:16:17.866Z,58.50
2022-11-24T14:18:48.004Z,58.50
2022-11-24T14:21:23.996Z,58.50
2022-11-24T14:23:55.101Z,58.30
2022-11-24T14:26:33.417Z,58.30
2022-11-24T14:29:06.870Z,58.00
2022-11-24T14:31:36.535Z,57.70
2022-11-24T14:34:21.123Z,57.50
2022-11-24T14:36:50.037Z,56.90
2022-11-24T14:39:19.622Z,57.00
2022-11-24T14:41:53.255Z,56.70
2022-11-24T14:44:24.928Z,56.50
2022-11-24T14:47:02.757Z,56.50
2022-11-24T14:49:32.382Z,56.10
2022-11-24T14:52:03.780Z,56.30
2022-11-24T14:54:32.800Z,56.30
2022-11-24T14:57:04.104Z,56.30
2022-11-24T14:59:35.955Z,56.20
2022-11-24T15:02:40.773Z,56.10
2022-11-24T15:05:09.212Z,55.80
2022-11-24T15:07:39.361Z,56.20
2022-11-24T15:10:19.780Z,56.10
2022-11-24T15:12:53.579Z,56.30
2022-11-24T15:15:33.159Z,56.20
2022-11-24T15:18:05.548Z,56.30
2022-11-24T15:20:36.006Z,56.40
2022-11-24T15:23:24.980Z,56.40
2022-11-24T15:25:54.232Z,56.60
2022-11-24T15:28:25.741Z,56.80
2022-11-24T15:30:55.274Z,56.90
2022-11-24T15:33:24.958Z,57.00
2022-11-24T15:35:53.494Z,57.10
2022-11-24T15:38:22.688Z,57.30
2022-11-24T15:40:53.202Z,57.40
2022-11-24T15:43:29.791Z,57.60
2022-11-24T15:45:58.826Z,57.70
2022-11-24T15:48:28.812Z,57.80
2022-11-24T15:50:58.432Z,58.00
2022-11-24T15:53:30.739Z,58.50
2022-11-24T15:55:59.884Z,58.80
2022-11-24T15:58:28.027Z,59.50
2022-11-24T16:00:56.261Z,59.10
2022-11-24T16:03:46.534Z,59.00
2022-11-24T16:06:22.245Z,59.10
2022-11-24T16:08:52.484Z,59.10
2022-11-24T16:11:20.701Z,59.50
2022-11-24T16:13:53.001Z,59.40
2022-11-24T16:16:23.124Z,59.40
2022-11-24T16:18:51.488Z,59.50
2022-11-24T16:21:21.118Z,59.50
2022-11-24T16:23:49.341Z,59.60
2022-11-24T16:26:17.564Z,59.60
2022-11-24T16:28:46.224Z,59.70
2022-11-24T16:31:16.290Z,59.80
2022-11-24T16:33:46.446Z,59.70
2022-11-24T16:36:15.227Z,59.90
2022-11-24T16:38:45.118Z,59.90
2022-11-24T16:41:13.738Z,60.00
2022-11-24T16:43:42.166Z,60.10
2022-11-24T16:46:19.213Z,60.20
2022-11-24T16:48:49.575Z,60.40
2022-11-24T16:51:18.620Z,60.40
2022-11-24T16:53:48.574Z,60.60
2022-11-24T16:56:17.434Z,60.70
2022-11-24T16:58:45.635Z,60.80
2022-11-24T17:01:15.644Z,61.00
2022-11-24T17:03:43.938Z,61.10
2022-11-24T17:06:15.641Z,61.40
2022-11-24T17:08:45.361Z,61.50
2022-11-24T17:11:17.047Z,61.70
2022-11-24T17:13:47.069Z,61.80
2022-11-24T17:16:17.236Z,61.90
2022-11-24T17:18:46.217Z,62.00
2022-11-24T17:21:16.815Z,62.10
2022-11-24T17:23:45.646Z,62.20
2022-11-24T17:26:16.818Z,62.40
2022-11-24T17:28:45.287Z,62.40
2022-11-24T17:31:19.985Z,62.30
2022-11-24T17:33:48.403Z,62.30
2022-11-24T17:36:16.609Z,62.40
2022-11-24T17:38:44.738Z,62.50
2022-11-24T17:41:13.170Z,62.60
2022-11-24T17:43:42.737Z,62.60
2022-11-24T17:46:11.806Z,62.80
2022-11-24T17:48:40.335Z,62.80
2022-11-24T17:51:12.748Z,62.80
2022-11-24T17:53:42.158Z,62.90
2022-11-24T17:56:13.803Z,62.90
2022-11-24T17:58:43.809Z,63.20
2022-11-24T18:01:12.615Z,63.10
2022-11-24T18:03:41.362Z,63.20
2022-11-24T18:06:11.656Z,63.30
2022-11-24T18:08:41.192Z,63.40
2022-11-24T18:11:10.808Z,63.60
2022-11-24T18:16:30.195Z,63.80
2022-11-24T18:19:09.837Z,63.80
2022-11-24T18:21:38.883Z,63.70
2022-11-24T18:24:07.945Z,63.70
2022-11-24T18:26:36.368Z,63.70
2022-11-24T18:29:05.173Z,63.60
2022-11-24T18:31:35.684Z,63.60
2022-11-24T18:34:05.513Z,63.60
2022-11-24T18:36:34.952Z,63.60
2022-11-24T18:39:03.688Z,63.60
2022-11-24T18:41:32.357Z,63.60
2022-11-24T18:44:02.248Z,63.70
2022-11-24T18:46:30.661Z,63.70
2022-11-24T18:49:00.423Z,63.60
2022-11-24T18:51:28.856Z,63.60
2022-11-24T18:53:58.164Z,63.60
2022-11-24T18:56:27.899Z,63.60
2022-11-24T18:58:57.399Z,63.60
2022-11-24T19:01:27.626Z,63.60
2022-11-24T19:03:57.417Z,63.60
2022-11-24T19:06:32.070Z,63.60
2022-11-24T19:09:01.983Z,63.70
2022-11-24T19:11:33.836Z,63.80
2022-11-24T19:14:03.031Z,63.90
2022-11-24T19:16:31.524Z,64.00
2022-11-24T19:19:01.762Z,64.10
2022-11-24T19:21:33.197Z,65.20
2022-11-24T19:24:05.588Z,65.30
2022-11-24T19:26:34.752Z,65.40
2022-11-24T19:29:03.157Z,65.60
2022-11-24T19:31:32.901Z,65.60
2022-11-24T19:34:03.257Z,65.70
2022-11-24T19:36:33.475Z,65.60
2022-11-24T19:39:03.079Z,65.80
2022-11-24T19:41:33.009Z,66.00
2022-11-24T19:44:01.736Z,66.10
2022-11-24T19:46:30.744Z,66.30
2022-11-24T19:49:01.349Z,66.40
2022-11-24T19:51:33.218Z,66.50
2022-11-24T19:54:02.553Z,66.60
2022-11-24T19:56:34.339Z,66.60
2022-11-24T19:59:03.955Z,66.70
2022-11-24T20:01:33.715Z,66.80
2022-11-24T20:04:05.053Z,66.80
2022-11-24T20:06:37.948Z,66.90
2022-11-24T20:09:08.450Z,67.00
2022-11-24T20:11:37.130Z,67.00
2022-11-24T20:14:05.961Z,67.10
2022-11-24T20:16:35.872Z,67.10
2022-11-24T20:19:07.074Z,67.20
2022-11-24T20:21:38.178Z,67.40
2022-11-24T20:24:08.887Z,67.60
2022-11-24T20:26:38.796Z,67.70
2022-11-24T20:29:09.712Z,67.80
2022-11-24T20:31:40.883Z,67.70
2022-11-24T20:34:10.232Z,67.80
2022-11-24T20:36:41.393Z,67.80
2022-11-24T20:39:12.974Z,67.80
2022-11-24T20:41:41.777Z,67.90
2022-11-24T20:44:15.141Z,68.00
2022-11-24T20:46:45.269Z,68.20
2022-11-24T20:49:15.830Z,68.40
2022-11-24T20:51:47.589Z,68.50
2022-11-24T20:54:17.735Z,68.60
2022-11-24T20:56:47.265Z,68.70
2022-11-24T20:59:18.072Z,68.80
2022-11-24T21:01:47.781Z,68.70
2022-11-24T21:04:18.233Z,68.80
2022-11-24T21:06:48.412Z,69.10
2022-11-24T21:09:16.967Z,69.20
2022-11-24T21:11:45.116Z,69.30
2022-11-24T21:14:13.748Z,69.50
2022-11-24T21:16:43.504Z,69.50
2022-11-24T21:19:14.049Z,69.60
2022-11-24T21:21:43.515Z,69.70
2022-11-24T21:24:15.419Z,69.90
2022-11-24T21:26:47.295Z,70.30
2022-11-24T21:29:17.767Z,70.30
2022-11-24T21:31:46.219Z,70.40
2022-11-24T21:34:16.345Z,70.40
2022-11-24T21:36:45.397Z,70.40
2022-11-24T21:39:16.129Z,70.50
2022-11-24T21:41:44.405Z,70.60
2022-11-24T21:44:13.407Z,70.70
2022-11-24T21:46:49.356Z,70.80
2022-11-24T21:49:19.294Z,70.80
2022-11-24T21:51:48.024Z,70.90
2022-11-24T21:54:17.579Z,70.90
2022-11-24T21:56:45.701Z,70.90
2022-11-24T21:59:13.900Z,71.00
2022-11-24T22:01:42.197Z,71.20
2022-11-24T22:04:23.462Z,71.40
2022-11-24T22:07:02.155Z,71.40
2022-11-24T22:09:32.356Z,71.50
2022-11-24T22:12:00.912Z,71.60
2022-11-24T22:14:30.081Z,71.80
2022-11-24T22:16:58.301Z,71.80
2022-11-24T22:19:26.440Z,72.00
2022-11-24T22:21:54.621Z,71.90
2022-11-24T22:24:35.939Z,71.90
2022-11-24T22:27:05.653Z,72.00
2022-11-24T22:29:33.792Z,71.90
2022-11-24T22:32:02.151Z,71.90
2022-11-24T22:34:30.564Z,72.10
2022-11-24T22:36:58.919Z,72.00
2022-11-24T22:39:27.179Z,72.00
2022-11-24T22:41:55.423Z,72.00
2022-11-24T22:44:24.951Z,72.00
2022-11-24T22:46:53.184Z,72.00
2022-11-24T22:49:22.000Z,71.90
2022-11-24T22:51:50.259Z,71.90
2022-11-24T22:54:18.465Z,71.90
2022-11-24T22:56:46.811Z,72.00
2022-11-24T22:59:15.038Z,72.00
2022-11-24T23:01:44.612Z,72.10
2022-11-24T23:04:12.824Z,72.10
2022-11-24T23:06:41.586Z,72.10
2022-11-24T23:09:12.684Z,72.10
2022-11-24T23:11:41.964Z,72.20
2022-11-24T23:14:14.566Z,72.30
2022-11-24T23:16:44.357Z,72.20
2022-11-24T23:19:12.748Z,72.20
2022-11-24T23:21:41.229Z,72.20
2022-11-24T23:24:10.963Z,72.20
2022-11-24T23:26:41.279Z,72.50
2022-11-24T23:29:11.062Z,72.20
2022-11-24T23:31:40.630Z,72.30
2022-11-24T23:34:10.503Z,72.30
2022-11-24T23:36:38.854Z,72.30
2022-11-24T23:39:09.444Z,72.40
2022-11-24T23:41:37.606Z,72.40
2022-11-24T23:44:06.211Z,72.40
2022-11-24T23:46:34.517Z,73.10
2022-11-24T23:49:03.124Z,72.50
2022-11-24T23:51:34.577Z,72.80
2022-11-24T23:54:02.852Z,72.90
2022-11-24T23:56:33.110Z,72.90
2022-11-24T23:59:02.619Z,72.90
